createdAt,value
2019-03-01T00:00:48.647Z,35.3
2019-03-01T00:01:38.772Z,35.3
2019-03-01T00:02:28.800Z,35.3
2019-03-01T00:03:19.104Z,35.3
2019-03-01T00:04:08.630Z,35.3
2019-03-01T00:04:58.700Z,35.3
2019-03-01T00:05:48.992Z,35.3
2019-03-01T00:06:39.056Z,35.3
2019-03-01T00:07:29.413Z,35.3
2019-03-01T00:08:18.964Z,35.3
2019-03-01T00:09:08.652Z,35.3
2019-03-01T00:09:59.281Z,35.3
2019-03-01T00:10:49.115Z,35.3
2019-03-01T00:11:39.431Z,35.3
2019-03-01T00:12:29.461Z,35.3
2019-03-01T00:13:19.819Z,35.3
2019-03-01T00:14:09.899Z,35.3
2019-03-01T00:14:59.352Z,35.3
2019-03-01T00:15:49.746Z,35.3
2019-03-01T00:16:39.481Z,35.3
2019-03-01T00:17:29.516Z,35.3
2019-03-01T00:18:19.040Z,35.3
2019-03-01T00:19:09.292Z,35.3
2019-03-01T00:20:00.332Z,35.3
2019-03-01T00:20:49.102Z,35.3
2019-03-01T00:21:39.455Z,35.3
2019-03-01T00:22:29.813Z,35.3
2019-03-01T00:23:19.832Z,35.3
2019-03-01T00:24:09.884Z,35.3
2019-03-01T00:24:59.445Z,35.3
2019-03-01T00:25:50.325Z,35.3
2019-03-01T00:26:40.385Z,35.3
2019-03-01T00:27:28.732Z,35.3
2019-03-01T00:28:20.190Z,35.3
2019-03-01T00:29:10.559Z,35.3
2019-03-01T00:29:59.522Z,35.3
2019-03-01T00:30:50.090Z,35.3
2019-03-01T00:31:40.967Z,35.3
2019-03-01T00:32:29.959Z,35.3
2019-03-01T00:33:20.840Z,35.3
2019-03-01T00:34:10.887Z,35.3
2019-03-01T00:35:01.071Z,35.3
2019-03-01T00:35:51.257Z,35.3
2019-03-01T00:36:40.794Z,35.3
2019-03-01T00:37:30.274Z,35.3
2019-03-01T00:38:20.574Z,35.3
2019-03-01T00:39:10.689Z,35.3
2019-03-01T00:40:00.510Z,35.3
2019-03-01T00:40:50.814Z,35.3
2019-03-01T00:41:41.448Z,35.3
2019-03-01T00:42:30.876Z,35.3
2019-03-01T00:43:21.780Z,35.3
2019-03-01T00:44:11.015Z,35.3
2019-03-01T00:45:02.091Z,35.3
2019-03-01T00:45:51.424Z,35.3
2019-03-01T00:46:40.653Z,35.3
2019-03-01T00:47:31.256Z,35.3
2019-03-01T00:48:20.473Z,35.3
2019-03-01T00:49:11.626Z,35.3
2019-03-01T00:50:01.409Z,35.2
2019-03-01T00:50:51.269Z,35.2
2019-03-01T00:51:41.786Z,35.2
2019-03-01T00:52:32.173Z,35.2
2019-03-01T00:53:22.287Z,35.2
2019-03-01T00:54:11.693Z,35.2
2019-03-01T00:55:01.795Z,35.2
2019-03-01T00:55:52.397Z,35.2
2019-03-01T00:56:41.331Z,35.2
2019-03-01T00:57:32.455Z,35.2
2019-03-01T00:58:21.740Z,35.2
2019-03-01T00:59:12.073Z,35.2
2019-03-01T01:00:01.976Z,35.2
2019-03-01T01:00:52.430Z,35.2
2019-03-01T01:01:41.945Z,35.2
2019-03-01T01:02:32.352Z,35.2
2019-03-01T01:03:22.668Z,35.2
2019-03-01T01:04:12.678Z,35.2
2019-03-01T01:05:02.227Z,35.2
2019-03-01T01:05:52.520Z,35.1
2019-03-01T01:06:42.314Z,35.2
2019-03-01T01:07:32.410Z,35.2
2019-03-01T01:08:23.254Z,35.1
2019-03-01T01:09:13.072Z,35.1
2019-03-01T01:10:18.390Z,35.1
2019-03-01T01:10:53.729Z,35.1
2019-03-01T01:11:42.955Z,35.1
2019-03-01T01:12:32.972Z,35.1
2019-03-01T01:13:23.077Z,35.1
2019-03-01T01:14:12.820Z,35.1
2019-03-01T01:15:03.939Z,35.1
2019-03-01T01:15:53.250Z,35.1
2019-03-01T01:16:43.289Z,35.1
2019-03-01T01:17:33.884Z,35.1
2019-03-01T01:18:23.415Z,35.1
2019-03-01T01:19:13.151Z,35.1
2019-03-01T01:20:03.707Z,35.1
2019-03-01T01:20:53.815Z,35.1
2019-03-01T01:21:43.329Z,35.1
2019-03-01T01:22:34.249Z,35.1
2019-03-01T01:23:24.026Z,35.1
2019-03-01T01:24:13.021Z,35.1
2019-03-01T01:25:04.158Z,35.1
2019-03-01T01:25:53.283Z,35.1
2019-03-01T01:26:44.024Z,35.1
2019-03-01T01:27:33.258Z,35.1
2019-03-01T01:28:23.944Z,35.1
2019-03-01T01:29:14.253Z,35.1
2019-03-01T01:30:04.624Z,35.1
2019-03-01T01:30:53.978Z,35.1
2019-03-01T01:31:44.645Z,35.1
2019-03-01T01:32:34.920Z,35.1
2019-03-01T01:33:24.484Z,35.1
2019-03-01T01:34:14.533Z,35.1
2019-03-01T01:35:04.447Z,35.1
2019-03-01T01:35:54.841Z,35
2019-03-01T01:36:44.910Z,35.1
2019-03-01T01:37:34.788Z,35
2019-03-01T01:38:24.234Z,35
2019-03-01T01:39:14.273Z,35
2019-03-01T01:40:05.207Z,35
2019-03-01T01:40:54.120Z,35
2019-03-01T01:41:44.778Z,35
2019-03-01T01:42:34.546Z,35
2019-03-01T01:43:26.333Z,35
2019-03-01T01:44:14.642Z,35
2019-03-01T01:45:05.680Z,35
2019-03-01T01:45:56.973Z,35
2019-03-01T01:46:45.623Z,35
2019-03-01T01:47:35.176Z,35
2019-03-01T01:48:26.283Z,35
2019-03-01T01:49:15.782Z,35
2019-03-01T01:50:05.705Z,34.9
2019-03-01T01:50:55.608Z,34.9
2019-03-01T01:51:45.199Z,34.9
2019-03-01T01:52:35.775Z,34.9
2019-03-01T01:53:26.377Z,34.9
2019-03-01T01:54:16.428Z,34.9
2019-03-01T01:55:06.835Z,34.9
2019-03-01T01:55:56.557Z,34.9
2019-03-01T01:56:46.647Z,34.9
2019-03-01T01:57:36.403Z,34.9
2019-03-01T01:58:26.442Z,34.9
2019-03-01T01:59:16.212Z,34.9
2019-03-01T02:00:06.417Z,34.9
2019-03-01T02:00:57.152Z,34.9
2019-03-01T02:01:46.649Z,34.9
2019-03-01T02:02:35.901Z,34.9
2019-03-01T02:03:25.929Z,35
2019-03-01T02:04:16.812Z,35
2019-03-01T02:05:06.084Z,35.1
2019-03-01T02:05:56.712Z,35.1
2019-03-01T02:06:47.572Z,35.1
2019-03-01T02:07:37.077Z,35.2
2019-03-01T02:08:27.434Z,35.3
2019-03-01T02:09:17.195Z,35.4
2019-03-01T02:10:07.259Z,35.4
2019-03-01T02:10:57.574Z,35.6
2019-03-01T02:11:47.679Z,35.7
2019-03-01T02:12:37.980Z,35.8
2019-03-01T02:13:27.489Z,35.9
2019-03-01T02:14:17.004Z,36.1
2019-03-01T02:15:07.039Z,36.2
2019-03-01T02:15:58.206Z,36.3
2019-03-01T02:16:48.018Z,36.4
2019-03-01T02:17:37.769Z,36.6
2019-03-01T02:18:27.801Z,36.8
2019-03-01T02:19:18.148Z,36.9
2019-03-01T02:20:07.689Z,37.1
2019-03-01T02:20:57.977Z,37.3
2019-03-01T02:21:47.516Z,37.4
2019-03-01T02:22:38.113Z,37.6
2019-03-01T02:23:28.218Z,37.8
2019-03-01T02:24:18.522Z,37.9
2019-03-01T02:25:08.056Z,38.1
2019-03-01T02:25:58.136Z,38.3
2019-03-01T02:26:48.713Z,38.4
2019-03-01T02:27:38.453Z,38.6
2019-03-01T02:28:28.528Z,38.7
2019-03-01T02:29:19.146Z,38.8
2019-03-01T02:30:09.100Z,38.9
2019-03-01T02:30:59.110Z,39
2019-03-01T02:31:48.289Z,39.1
2019-03-01T02:32:39.375Z,39.2
2019-03-01T02:33:28.720Z,39.3
2019-03-01T02:34:18.956Z,39.4
2019-03-01T02:35:09.846Z,39.4
2019-03-01T02:35:59.418Z,39.5
2019-03-01T02:36:49.466Z,39.6
2019-03-01T02:37:38.963Z,39.7
2019-03-01T02:38:29.289Z,39.7
2019-03-01T02:39:18.521Z,39.8
2019-03-01T02:40:08.577Z,39.9
2019-03-01T02:40:58.880Z,39.9
2019-03-01T02:41:49.506Z,40
2019-03-01T02:42:39.282Z,40.1
2019-03-01T02:43:29.673Z,40.1
2019-03-01T02:44:18.384Z,40.1
2019-03-01T02:45:09.000Z,40.2
2019-03-01T02:45:59.338Z,40.2
2019-03-01T02:46:48.795Z,40.3
2019-03-01T02:47:39.729Z,40.3
2019-03-01T02:48:29.722Z,40.3
2019-03-01T02:49:19.017Z,40.4
2019-03-01T02:50:09.075Z,40.4
2019-03-01T02:51:00.123Z,40.5
2019-03-01T02:51:49.790Z,40.5
2019-03-01T02:52:40.608Z,40.6
2019-03-01T02:53:30.581Z,40.6
2019-03-01T02:54:20.413Z,40.6
2019-03-01T02:55:10.250Z,40.6
2019-03-01T02:56:01.045Z,40.7
2019-03-01T02:56:50.914Z,40.7
2019-03-01T02:57:39.550Z,40.7
2019-03-01T02:58:30.120Z,40.7
2019-03-01T02:59:20.504Z,40.7
2019-03-01T03:00:10.799Z,40.7
2019-03-01T03:01:00.587Z,40.8
2019-03-01T03:01:50.874Z,40.8
2019-03-01T03:02:41.502Z,40.8
2019-03-01T03:03:31.270Z,40.8
2019-03-01T03:04:21.020Z,40.9
2019-03-01T03:07:53.534Z,41
2019-03-01T03:08:43.364Z,41.1
2019-03-01T03:09:33.671Z,41.1
2019-03-01T03:10:23.463Z,41.1
2019-03-01T03:11:13.497Z,41.1
2019-03-01T03:12:03.671Z,41.1
2019-03-01T03:12:54.145Z,41.1
2019-03-01T03:13:43.956Z,41.1
2019-03-01T03:14:33.753Z,41.1
2019-03-01T03:15:23.541Z,41.1
2019-03-01T03:16:14.091Z,41.1
2019-03-01T03:17:04.428Z,41.1
2019-03-01T03:17:54.351Z,41.1
2019-03-01T03:18:44.541Z,41.1
2019-03-01T03:19:34.331Z,41.1
2019-03-01T03:20:24.413Z,41.1
2019-03-01T03:21:14.185Z,41.1
2019-03-01T03:22:04.793Z,41.2
2019-03-01T03:22:53.486Z,41.2
2019-03-01T03:23:44.636Z,41.2
2019-03-01T03:24:34.745Z,41.3
2019-03-01T03:25:24.988Z,41.3
2019-03-01T03:26:14.692Z,41.3
2019-03-01T03:27:05.102Z,41.3
2019-03-01T03:27:54.996Z,41.3
2019-03-01T03:28:44.475Z,41.3
2019-03-01T03:29:34.843Z,41.3
2019-03-01T03:30:25.439Z,41.3
2019-03-01T03:31:14.511Z,41.3
2019-03-01T03:32:05.988Z,41.3
2019-03-01T03:32:55.310Z,41.3
2019-03-01T03:33:45.556Z,41.3
2019-03-01T03:34:35.058Z,41.3
2019-03-01T03:35:26.009Z,41.3
2019-03-01T03:36:15.315Z,41.3
2019-03-01T03:37:05.555Z,41.3
2019-03-01T03:37:55.077Z,41.3
2019-03-01T03:38:45.452Z,41.3
2019-03-01T03:39:35.460Z,41.3
2019-03-01T03:40:24.990Z,41.3
2019-03-01T03:41:14.467Z,41.3
2019-03-01T03:42:04.793Z,41.3
2019-03-01T03:42:55.510Z,41.3
2019-03-01T03:43:44.647Z,41.3
2019-03-01T03:44:35.772Z,41.3
2019-03-01T03:45:25.399Z,41.3
2019-03-01T03:46:15.966Z,41.3
2019-03-01T03:47:05.436Z,41.3
2019-03-01T03:47:55.562Z,41.3
2019-03-01T03:48:45.884Z,41.3
2019-03-01T03:49:35.653Z,41.3
2019-03-01T03:50:26.254Z,41.3
2019-03-01T03:51:15.824Z,41.3
2019-03-01T03:52:05.301Z,41.3
2019-03-01T03:52:56.442Z,41.3
2019-03-01T03:53:46.224Z,41.3
2019-03-01T03:54:36.233Z,41.3
2019-03-01T03:55:25.797Z,41.3
2019-03-01T03:56:16.300Z,41.3
2019-03-01T03:57:06.159Z,41.2
2019-03-01T03:57:56.413Z,41.3
2019-03-01T03:58:46.829Z,41.3
2019-03-01T03:59:36.869Z,41.3
2019-03-01T04:00:27.209Z,41.3
2019-03-01T04:01:16.674Z,41.2
2019-03-01T04:02:06.522Z,41.3
2019-03-01T04:02:56.821Z,41.2
2019-03-01T04:03:46.000Z,41.2
2019-03-01T04:04:37.153Z,41.2
2019-03-01T04:05:27.365Z,41.2
2019-03-01T04:06:17.295Z,41.2
2019-03-01T04:07:06.519Z,41.2
2019-03-01T04:07:57.134Z,41.2
2019-03-01T04:08:47.716Z,41.2
2019-03-01T04:09:37.549Z,41.2
2019-03-01T04:10:27.669Z,41.2
2019-03-01T04:11:17.835Z,41.2
2019-03-01T04:12:08.215Z,41.2
2019-03-01T04:12:57.778Z,41.1
2019-03-01T04:13:48.318Z,41.2
2019-03-01T04:14:38.211Z,41.1
2019-03-01T04:15:27.640Z,41.1
2019-03-01T04:16:17.985Z,41.2
2019-03-01T04:17:07.785Z,41.1
2019-03-01T04:17:58.127Z,41.1
2019-03-01T04:18:47.175Z,41.2
2019-03-01T04:19:37.690Z,41.1
2019-03-01T04:20:27.439Z,41.1
2019-03-01T04:21:18.038Z,41.1
2019-03-01T04:22:08.168Z,41.1
2019-03-01T04:22:58.432Z,41.1
2019-03-01T04:23:48.776Z,41.1
2019-03-01T04:24:38.320Z,41.1
2019-03-01T04:25:28.224Z,41.1
2019-03-01T04:26:17.785Z,41.1
2019-03-01T04:27:08.596Z,41.1
2019-03-01T04:27:58.402Z,41.1
2019-03-01T04:28:48.544Z,41.1
2019-03-01T04:29:38.867Z,41.1
2019-03-01T04:30:28.492Z,41.1
2019-03-01T04:31:18.683Z,41.1
2019-03-01T04:32:09.006Z,41.1
2019-03-01T04:32:58.549Z,41.1
2019-03-01T04:33:49.449Z,41.1
2019-03-01T04:34:38.648Z,41.1
2019-03-01T04:35:29.763Z,41.1
2019-03-01T04:36:19.057Z,41.1
2019-03-01T04:37:09.665Z,41.1
2019-03-01T04:37:59.240Z,41.1
2019-03-01T04:38:48.970Z,41.1
2019-03-01T04:39:39.226Z,41
2019-03-01T04:40:29.376Z,41.1
2019-03-01T04:41:19.406Z,41.1
2019-03-01T04:42:09.958Z,41
2019-03-01T04:42:59.803Z,41
2019-03-01T04:43:49.786Z,41
2019-03-01T04:44:39.845Z,41
2019-03-01T04:45:29.158Z,41
2019-03-01T04:46:20.175Z,41
2019-03-01T04:47:09.748Z,41
2019-03-01T04:48:00.088Z,41
2019-03-01T04:48:50.141Z,40.9
2019-03-01T04:49:40.666Z,41
2019-03-01T04:50:30.005Z,41
2019-03-01T04:51:20.111Z,41
2019-03-01T04:52:10.588Z,40.9
2019-03-01T04:52:59.625Z,40.9
2019-03-01T04:53:49.985Z,41
2019-03-01T04:54:39.725Z,40.9
2019-03-01T04:55:30.602Z,40.9
2019-03-01T04:56:22.551Z,40.9
2019-03-01T04:57:11.193Z,40.9
2019-03-01T04:58:00.785Z,40.9
2019-03-01T04:58:50.853Z,40.9
2019-03-01T04:59:40.882Z,40.9
2019-03-01T05:00:31.430Z,40.9
2019-03-01T05:01:20.398Z,40.9
2019-03-01T05:02:11.058Z,40.9
2019-03-01T05:03:00.639Z,40.9
2019-03-01T05:03:51.439Z,40.9
2019-03-01T05:04:41.168Z,40.9
2019-03-01T05:05:30.168Z,40.9
2019-03-01T05:06:21.837Z,40.9
2019-03-01T05:07:11.637Z,40.9
2019-03-01T05:08:01.439Z,40.9
2019-03-01T05:08:51.645Z,40.9
2019-03-01T05:09:41.544Z,40.9
2019-03-01T05:10:31.573Z,40.9
2019-03-01T05:11:21.595Z,40.8
2019-03-01T05:12:11.957Z,40.9
2019-03-01T05:13:02.624Z,40.9
2019-03-01T05:13:52.062Z,40.8
2019-03-01T05:14:42.395Z,40.8
2019-03-01T05:15:32.486Z,40.8
2019-03-01T05:16:21.427Z,40.8
2019-03-01T05:17:12.336Z,40.8
2019-03-01T05:18:02.117Z,40.8
2019-03-01T05:18:52.689Z,40.8
2019-03-01T05:19:42.748Z,40.8
2019-03-01T05:20:35.877Z,40.8
2019-03-01T05:21:22.902Z,40.8
2019-03-01T05:22:12.382Z,40.8
2019-03-01T05:23:03.292Z,40.8
2019-03-01T05:23:52.519Z,40.8
2019-03-01T05:24:42.573Z,40.8
2019-03-01T05:25:32.088Z,40.8
2019-03-01T05:26:22.689Z,40.8
2019-03-01T05:27:13.277Z,40.8
2019-03-01T05:28:03.344Z,40.8
2019-03-01T05:28:53.431Z,40.8
2019-03-01T05:29:42.876Z,40.8
2019-03-01T05:30:33.231Z,40.8
2019-03-01T05:31:22.988Z,40.8
2019-03-01T05:32:13.333Z,40.8
2019-03-01T05:33:03.411Z,40.8
2019-03-01T05:33:55.311Z,40.7
2019-03-01T05:34:43.786Z,40.7
2019-03-01T05:35:33.006Z,40.7
2019-03-01T05:36:23.661Z,40.7
2019-03-01T05:37:13.166Z,40.7
2019-03-01T05:38:03.445Z,40.7
2019-03-01T05:38:53.805Z,40.7
2019-03-01T05:39:44.168Z,40.7
2019-03-01T05:40:34.281Z,40.7
2019-03-01T05:41:23.393Z,40.7
2019-03-01T05:42:13.774Z,40.7
2019-03-01T05:43:04.170Z,40.7
2019-03-01T05:43:53.860Z,40.6
2019-03-01T05:44:44.568Z,40.7
2019-03-01T05:45:33.757Z,40.7
2019-03-01T05:46:23.804Z,40.6
2019-03-01T05:47:14.111Z,40.6
2019-03-01T05:48:04.759Z,40.6
2019-03-01T05:48:54.495Z,40.6
2019-03-01T05:49:44.834Z,40.6
2019-03-01T05:50:34.631Z,40.6
2019-03-01T05:51:24.407Z,40.6
2019-03-01T05:52:15.009Z,40.6
2019-03-01T05:53:05.111Z,40.6
2019-03-01T05:53:54.581Z,40.6
2019-03-01T05:54:44.866Z,40.6
2019-03-01T05:55:34.676Z,40.6
2019-03-01T05:56:24.712Z,40.6
2019-03-01T05:57:15.318Z,40.6
2019-03-01T05:58:04.855Z,40.6
2019-03-01T05:58:55.451Z,40.6
2019-03-01T05:59:44.395Z,40.6
2019-03-01T06:00:35.840Z,40.6
2019-03-01T06:01:25.338Z,40.6
2019-03-01T06:02:15.426Z,40.6
2019-03-01T06:03:05.483Z,40.6
2019-03-01T06:03:55.526Z,40.6
2019-03-01T06:06:43.018Z,40.5
2019-03-01T06:07:48.265Z,40.5
2019-03-01T06:08:23.670Z,40.5
2019-03-01T06:09:13.495Z,40.5
2019-03-01T06:10:03.510Z,40.5
2019-03-01T06:10:58.840Z,40.5
2019-03-01T06:11:42.815Z,40.5
2019-03-01T06:12:33.141Z,40.4
2019-03-01T06:13:23.783Z,40.4
2019-03-01T06:14:14.391Z,40.4
2019-03-01T06:15:03.779Z,40.4
2019-03-01T06:15:53.970Z,40.4
2019-03-01T06:16:46.268Z,40.3
2019-03-01T06:17:33.775Z,40.3
2019-03-01T06:18:24.682Z,40.3
2019-03-01T06:19:14.152Z,40.3
2019-03-01T06:20:04.660Z,40.2
2019-03-01T06:20:54.277Z,40.1
2019-03-01T06:21:44.594Z,40.1
2019-03-01T06:22:34.387Z,40.1
2019-03-01T06:23:24.827Z,40.1
2019-03-01T06:24:14.542Z,40
2019-03-01T06:25:04.421Z,40
2019-03-01T06:25:54.714Z,39.9
2019-03-01T06:26:44.402Z,39.9
2019-03-01T06:27:34.514Z,39.9
2019-03-01T06:28:24.519Z,39.9
2019-03-01T06:29:14.867Z,39.9
2019-03-01T06:30:05.622Z,39.9
2019-03-01T06:30:57.859Z,39.9
2019-03-01T06:31:45.297Z,39.9
2019-03-01T06:32:35.148Z,39.9
2019-03-01T06:33:25.709Z,39.8
2019-03-01T06:34:14.921Z,39.8
2019-03-01T06:35:05.206Z,39.8
2019-03-01T06:35:55.498Z,39.8
2019-03-01T06:36:45.646Z,39.8
2019-03-01T06:37:35.504Z,39.8
2019-03-01T06:38:25.494Z,39.8
2019-03-01T06:39:15.546Z,39.8
2019-03-01T06:40:05.778Z,39.8
2019-03-01T06:40:55.373Z,39.8
2019-03-01T06:41:45.982Z,39.8
2019-03-01T06:42:35.463Z,39.8
2019-03-01T06:43:27.032Z,39.7
2019-03-01T06:44:15.316Z,39.7
2019-03-01T06:45:05.633Z,39.7
2019-03-01T06:45:55.728Z,39.7
2019-03-01T06:46:46.316Z,39.7
2019-03-01T06:47:35.818Z,39.7
2019-03-01T06:48:25.090Z,39.7
2019-03-01T06:49:16.230Z,39.7
2019-03-01T06:50:06.948Z,39.7
2019-03-01T06:50:56.053Z,39.7
2019-03-01T06:51:45.430Z,39.6
2019-03-01T06:52:36.743Z,39.6
2019-03-01T06:53:26.795Z,39.6
2019-03-01T06:54:17.170Z,39.6
2019-03-01T06:55:07.123Z,39.6
2019-03-01T06:55:56.395Z,39.6
2019-03-01T06:56:45.930Z,39.6
2019-03-01T06:57:36.227Z,39.6
2019-03-01T06:58:27.496Z,32.9
2019-03-01T06:59:16.625Z,24.4
2019-03-01T07:00:07.042Z,40
2019-03-01T07:00:56.727Z,48.6
2019-03-01T07:01:47.367Z,51.4
2019-03-01T07:02:37.133Z,52.1
2019-03-01T07:06:02.913Z,50.6
2019-03-01T07:06:43.600Z,49.9
2019-03-01T07:07:33.672Z,49.5
2019-03-01T07:08:22.677Z,49.1
2019-03-01T07:09:13.792Z,48.7
2019-03-01T07:10:03.988Z,48.3
2019-03-01T07:10:53.632Z,47.9
2019-03-01T07:11:43.674Z,47.6
2019-03-01T07:12:34.275Z,47.3
2019-03-01T07:13:24.050Z,46.9
2019-03-01T07:14:13.302Z,46.6
2019-03-01T07:15:06.525Z,46.4
2019-03-01T07:15:54.201Z,46.1
2019-03-01T07:16:44.564Z,45.9
2019-03-01T07:17:33.254Z,45.6
2019-03-01T07:18:24.476Z,45.4
2019-03-01T07:19:14.617Z,45.2
2019-03-01T07:20:04.689Z,45
2019-03-01T07:20:54.638Z,44.8
2019-03-01T07:21:44.071Z,44.6
2019-03-01T07:22:34.449Z,44.4
2019-03-01T07:23:24.190Z,44.3
2019-03-01T07:24:16.125Z,42.3
2019-03-01T07:25:04.994Z,46.5
2019-03-01T07:25:56.787Z,53.9
2019-03-01T07:26:44.731Z,57.1
2019-03-01T07:27:34.553Z,56.8
2019-03-01T07:28:25.076Z,53.9
2019-03-01T07:30:04.764Z,50.8
2019-03-01T07:30:54.458Z,50.1
2019-03-01T07:31:44.253Z,49.6
2019-03-01T07:32:35.078Z,49.1
2019-03-01T07:33:25.193Z,48.5
2019-03-01T07:34:14.688Z,48
2019-03-01T07:35:04.883Z,47.5
2019-03-01T07:35:55.598Z,47.1
2019-03-01T07:36:44.817Z,47.3
2019-03-01T07:37:36.017Z,50.6
2019-03-01T07:38:25.833Z,57.3
2019-03-01T07:39:14.753Z,60.3
2019-03-01T07:40:05.135Z,60.5
2019-03-01T07:40:55.653Z,59
2019-03-01T07:41:45.453Z,57.4
2019-03-01T07:42:35.838Z,56.5
2019-03-01T07:43:26.130Z,56.3
2019-03-01T07:44:15.882Z,56.3
2019-03-01T07:45:06.454Z,56.4
2019-03-01T07:45:55.816Z,56.5
2019-03-01T07:46:57.640Z,56.6
2019-03-01T07:47:38.355Z,56.6
2019-03-01T07:48:26.740Z,56.5
2019-03-01T07:49:21.352Z,56.5
2019-03-01T07:50:06.317Z,56.4
2019-03-01T07:51:03.842Z,56.3
2019-03-01T07:51:45.909Z,55.9
2019-03-01T07:52:37.055Z,55.6
2019-03-01T07:53:26.279Z,55.4
2019-03-01T07:54:25.845Z,55.3
2019-03-01T07:55:09.202Z,55.2
2019-03-01T07:55:56.787Z,55.1
2019-03-01T07:56:47.050Z,55.1
2019-03-01T07:57:36.658Z,55.1
2019-03-01T07:58:31.842Z,54.9
2019-03-01T07:59:16.929Z,54.7
2019-03-01T08:00:07.249Z,54.4
2019-03-01T08:01:00.661Z,54.2
2019-03-01T08:01:47.084Z,54.1
2019-03-01T08:02:47.098Z,54.1
2019-03-01T08:03:27.486Z,54.3
2019-03-01T08:04:18.339Z,54.5
2019-03-01T08:05:10.861Z,55.1
2019-03-01T08:05:57.693Z,55.4
2019-03-01T08:06:53.796Z,55.6
2019-03-01T08:07:37.241Z,55.7
2019-03-01T08:08:27.616Z,55.9
2019-03-01T08:09:18.179Z,56.3
2019-03-01T08:10:07.682Z,56.6
2019-03-01T08:11:04.331Z,57.1
2019-03-01T08:11:47.241Z,57.6
2019-03-01T08:12:48.422Z,57.9
2019-03-01T08:13:29.656Z,58.3
2019-03-01T08:15:14.876Z,58.7
2019-03-01T08:15:57.803Z,58.7
2019-03-01T08:16:48.416Z,58.6
2019-03-01T08:17:38.761Z,58.6
2019-03-01T08:18:28.560Z,58.7
2019-03-01T08:19:27.466Z,58.8
2019-03-01T08:20:07.624Z,58.9
2019-03-01T08:20:58.761Z,58.9
2019-03-01T08:21:54.981Z,58.8
2019-03-01T08:23:31.633Z,58.3
2019-03-01T08:24:18.718Z,58.3
2019-03-01T08:25:08.168Z,58.3
2019-03-01T08:26:07.253Z,58.3
2019-03-01T08:26:49.413Z,58.4
2019-03-01T08:27:37.888Z,58.4
2019-03-01T08:28:28.777Z,58.5
2019-03-01T08:30:16.520Z,58.7
2019-03-01T08:30:59.158Z,58.7
2019-03-01T08:31:48.960Z,58.6
2019-03-01T08:32:39.518Z,58.8
2019-03-01T08:33:29.012Z,59
2019-03-01T08:34:24.207Z,59.3
2019-03-01T08:35:11.597Z,59.8
2019-03-01T08:36:05.685Z,59.8
2019-03-01T08:36:49.852Z,59.4
2019-03-01T08:37:39.933Z,59.1
2019-03-01T08:38:37.389Z,58.7
2019-03-01T08:39:18.962Z,58.4
2019-03-01T08:40:16.014Z,58.2
2019-03-01T08:41:49.594Z,57.4
2019-03-01T08:42:42.446Z,57.4
2019-03-01T08:43:30.214Z,57.7
2019-03-01T08:44:26.944Z,57.9
2019-03-01T08:45:10.101Z,58.1
2019-03-01T08:45:59.912Z,58.1
2019-03-01T08:46:52.299Z,57.7
2019-03-01T08:47:39.982Z,57.3
2019-03-01T08:48:37.272Z,57.3
2019-03-01T08:50:10.170Z,58.3
2019-03-01T08:51:01.534Z,58.9
2019-03-01T08:51:49.426Z,59.6
2019-03-01T08:52:46.382Z,60.1
2019-03-01T08:53:30.939Z,60.6
2019-03-01T08:54:28.179Z,60.9
2019-03-01T08:55:09.967Z,61.3
2019-03-01T08:56:00.839Z,61.4
2019-03-01T08:56:56.949Z,61.7
2019-03-01T08:57:50.092Z,62
2019-03-01T08:58:30.449Z,62.3
2019-03-01T08:59:24.506Z,62.5
2019-03-01T09:00:11.381Z,62.8
2019-03-01T09:01:14.246Z,62.9
2019-03-01T09:01:51.722Z,63.3
2019-03-01T09:02:41.098Z,63.4
2019-03-01T09:03:31.331Z,63.6
2019-03-01T09:04:26.641Z,63.9
2019-03-01T09:05:16.343Z,64.1
2019-03-01T09:06:01.588Z,64.3
2019-03-01T09:06:51.371Z,64.4
2019-03-01T09:07:41.636Z,64.6
2019-03-01T09:08:32.720Z,64.7
2019-03-01T09:09:27.693Z,64.8
2019-03-01T09:10:12.140Z,64.9
2019-03-01T09:11:01.986Z,64.9
2019-03-01T09:11:51.709Z,65
2019-03-01T09:12:41.700Z,65.1
2019-03-01T09:13:32.050Z,65.1
2019-03-01T09:14:28.345Z,65.1
2019-03-01T09:15:14.228Z,65.1
2019-03-01T09:16:03.353Z,65.2
2019-03-01T09:16:51.983Z,65.3
2019-03-01T09:17:42.032Z,65.4
2019-03-01T09:18:34.478Z,65.4
2019-03-01T09:19:29.760Z,65.5
2019-03-01T09:20:12.757Z,65.6
2019-03-01T09:21:18.555Z,65.6
2019-03-01T09:21:55.152Z,65.6
2019-03-01T09:22:42.730Z,65.6
2019-03-01T09:23:33.537Z,65.7
2019-03-01T09:24:29.032Z,65.7
2019-03-01T09:25:14.888Z,65.7
2019-03-01T09:26:02.660Z,65.8
2019-03-01T09:26:59.914Z,65.8
2019-03-01T09:27:43.292Z,65.8
2019-03-01T09:28:42.334Z,65.8
2019-03-01T09:29:25.342Z,65.7
2019-03-01T09:30:13.522Z,65.6
2019-03-01T09:31:03.574Z,65.5
2019-03-01T09:32:01.834Z,65.4
2019-03-01T09:32:43.714Z,65.3
2019-03-01T09:33:33.131Z,65.3
2019-03-01T09:34:23.478Z,65.3
2019-03-01T09:35:14.040Z,65.4
2019-03-01T09:36:03.626Z,65.4
2019-03-01T09:37:01.011Z,65.5
2019-03-01T09:37:43.726Z,65.6
2019-03-01T09:38:33.212Z,65.6
2019-03-01T09:39:25.056Z,65.7
2019-03-01T09:40:14.462Z,65.8
2019-03-01T09:41:10.911Z,65.8
2019-03-01T09:42:06.186Z,65.9
2019-03-01T09:42:47.371Z,65.9
2019-03-01T09:43:34.466Z,65.9
2019-03-01T09:44:24.766Z,65.9
2019-03-01T09:45:21.269Z,65.9
2019-03-01T09:46:04.289Z,66
2019-03-01T09:46:54.336Z,66.1
2019-03-01T09:47:44.663Z,66.2
2019-03-01T09:48:34.790Z,66.2
2019-03-01T09:49:30.618Z,66.1
2019-03-01T09:50:14.279Z,66
2019-03-01T09:51:10.468Z,65.9
2019-03-01T09:51:55.560Z,66
2019-03-01T09:52:47.294Z,66
2019-03-01T09:53:40.041Z,66.1
2019-03-01T09:54:25.128Z,66.1
2019-03-01T09:55:14.635Z,66.1
2019-03-01T09:56:06.026Z,66.1
2019-03-01T09:56:55.588Z,66.1
2019-03-01T09:57:44.288Z,66.1
2019-03-01T09:58:35.145Z,66.1
2019-03-01T09:59:25.027Z,66.1
2019-03-01T10:00:15.531Z,66.2
2019-03-01T10:01:05.888Z,66.2
2019-03-01T10:01:55.360Z,66.3
2019-03-01T10:02:45.682Z,66.3
2019-03-01T10:03:34.942Z,66.4
2019-03-01T10:04:25.528Z,66.5
2019-03-01T10:07:37.310Z,66.8
2019-03-01T10:07:47.524Z,66.9
2019-03-01T10:08:38.037Z,66.9
2019-03-01T12:06:52.673Z,70.3
2019-03-01T12:07:42.236Z,70.3
2019-03-01T12:08:33.064Z,70.3
2019-03-01T12:09:23.383Z,70.3
2019-03-01T12:10:13.793Z,70.2
2019-03-01T12:11:02.679Z,70.1
2019-03-01T12:11:53.563Z,70.1
2019-03-01T12:12:43.691Z,70
2019-03-01T12:13:32.355Z,70
2019-03-01T12:14:25.853Z,70
2019-03-01T12:15:14.073Z,69.9
2019-03-01T12:16:04.155Z,69.8
2019-03-01T12:16:53.377Z,69.8
2019-03-01T12:17:42.861Z,69.8
2019-03-01T12:18:33.737Z,69.8
2019-03-01T12:19:25.726Z,69.8
2019-03-01T12:20:14.140Z,69.8
2019-03-01T12:21:03.942Z,69.7
2019-03-01T12:21:54.040Z,69.7
2019-03-01T12:22:43.785Z,69.7
2019-03-01T12:23:34.140Z,69.7
2019-03-01T12:24:23.618Z,69.7
2019-03-01T12:25:16.770Z,69.7
2019-03-01T12:26:04.072Z,69.7
2019-03-01T12:26:53.849Z,69.6
2019-03-01T12:27:44.485Z,69.6
2019-03-01T12:28:34.470Z,69.6
2019-03-01T12:29:24.212Z,69.6
2019-03-01T12:30:14.559Z,69.5
2019-03-01T12:31:05.854Z,69.5
2019-03-01T12:31:54.696Z,69.4
2019-03-01T12:32:45.037Z,69.3
2019-03-01T12:33:34.259Z,69.3
2019-03-01T12:34:24.579Z,69.3
2019-03-01T12:35:14.902Z,69.2
2019-03-01T12:36:04.992Z,69.1
2019-03-01T12:36:54.469Z,69.1
2019-03-01T12:37:44.572Z,69.1
2019-03-01T12:38:34.919Z,69.1
2019-03-01T12:39:25.272Z,69.1
2019-03-01T12:40:14.729Z,69.1
2019-03-01T12:41:05.618Z,69
2019-03-01T12:41:55.093Z,69
2019-03-01T12:42:45.781Z,68.9
2019-03-01T12:43:35.783Z,68.9
2019-03-01T12:44:25.305Z,68.9
2019-03-01T12:45:15.678Z,68.8
2019-03-01T12:46:05.399Z,68.8
2019-03-01T12:46:56.072Z,68.8
2019-03-01T12:47:45.243Z,68.7
2019-03-01T12:48:35.627Z,68.7
2019-03-01T12:49:26.501Z,68.7
2019-03-01T12:50:15.713Z,68.6
2019-03-01T12:51:06.584Z,68.6
2019-03-01T12:51:55.880Z,68.4
2019-03-01T12:52:46.159Z,68.4
2019-03-01T12:53:36.473Z,68.3
2019-03-01T12:54:26.546Z,68.2
2019-03-01T12:55:18.648Z,68.1
2019-03-01T12:56:06.411Z,68.1
2019-03-01T12:56:56.168Z,68
2019-03-01T12:57:46.595Z,67.9
2019-03-01T12:58:36.059Z,67.8
2019-03-01T12:59:26.095Z,67.7
2019-03-01T13:00:16.965Z,67.5
2019-03-01T13:01:06.535Z,67.3
2019-03-01T13:01:56.828Z,67.2
2019-03-01T13:02:46.261Z,67.1
2019-03-01T13:03:40.522Z,66.9
2019-03-01T13:04:29.246Z,66.9
2019-03-01T13:05:16.428Z,66.9
2019-03-01T13:06:10.286Z,66.9
2019-03-01T13:06:56.834Z,66.8
2019-03-01T13:07:47.068Z,66.8
2019-03-01T13:08:37.561Z,66.7
2019-03-01T13:09:33.234Z,66.7
2019-03-01T13:10:17.407Z,66.6
2019-03-01T13:11:07.449Z,66.6
2019-03-01T13:11:57.574Z,66.5
2019-03-01T13:12:47.243Z,66.4
2019-03-01T13:13:43.956Z,66.4
2019-03-01T13:14:26.885Z,66.3
2019-03-01T13:15:19.634Z,66.3
2019-03-01T13:16:07.514Z,66.1
2019-03-01T13:17:03.836Z,66.1
2019-03-01T13:17:47.313Z,65.9
2019-03-01T13:18:37.672Z,65.9
2019-03-01T13:19:32.535Z,65.8
2019-03-01T13:20:17.225Z,65.7
2019-03-01T13:21:14.553Z,65.6